Hovedside
METAR-TAF:

METAR-TAF

Lufthavner :

Kimberley, Sør-Afrika

breddegrad: 28-48S, lengdegrad: 024-46E, høyde over havet: 1198 m

Gjeldene værobservasjon

Denne rapporten ble laget for 42 minutter siden, klokken 20:00 UTC
Vind 5 kt fra Øst-nordøst
Temperatur 8°C
Luftfuktighet 93%
Trykk 1031 hPa

METAR: FAKM 232000Z AUTO 07005KT //// // ////// 08/07 Q1031

Tid: 22:42 (20:42 UTC)

Varsel

Denne rapporten ble laget for 11 timer og 42 minutter siden, klokken 09:00 UTC
Varsel gyldig fra 23. klokken 10 UTC til 23. klokken 18 UTC
Vind 8 kt fra Nordøst
Sikt 10 km eller mer
ingen skyer under 1500 m og ingen bygeskyer

TAF: FAKM 230900Z 2310/2318 04008KT CAVOK TX22/2312Z TN12/2318Z

Værobservasjoner og værvarsel for over 4000 flyplasser (METAR- og TAF-rapporter).

Tilgjengelige stasjoner er representert av de røde og gule prikkene på kartet.

Hold musepekeren over prikken for å se navnet på stasjonen.

Klikk så for å se værobservasjoner og -varsler.

For å forandre kartet kan du klikke på den grønne knappen med svart kryss for å zoome inn, på den grønne knappen med strek for å zoome ut, eller på de grønne pilene for å se tilstøtende kart.


METAR-TAF: